CST,Max TemperatureF,Mean TemperatureF,Min TemperatureF,Max Dew PointF,MeanDew PointF,Min DewpointF,Max Humidity, Mean Humidity, Min Humidity, Max Sea Level PressureIn, Mean Sea Level PressureIn, Min Sea Level PressureIn, Max VisibilityMiles, Mean VisibilityMiles, Min VisibilityMiles, Max Wind SpeedMPH, Mean Wind SpeedMPH, Max Gust SpeedMPH,PrecipitationIn, CloudCover, Events, WindDirDegrees
2012-2-1,62,56,51,52,42,30,94,60,44,30.16,30.10,30.07,10,8,0,9,3,,0.00,5,,33
2012-2-2,64,50,35,41,35,30,81,47,30,30.24,30.17,30.13,10,10,10,18,11,24,0.00,5,,124
2012-2-3,59,55,51,54,50,43,94,84,67,30.09,29.99,29.89,10,8,3,17,13,28,0.00,8,Rain-Thunderstorm,127
2012-2-4,48,44,39,45,40,30,93,81,70,30.22,30.12,30.03,10,8,4,18,10,23,0.00,8,,282
2012-2-5,39,37,33,32,30,28,81,75,70,30.35,30.31,30.28,10,8,5,14,10,,0.00,7,,342
2012-2-6,50,38,26,30,26,23,93,62,35,30.33,30.26,30.19,10,8,5,7,1,,0.00,0,,245
2012-2-7,46,40,33,34,30,27,81,68,53,30.26,30.25,30.22,10,9,7,14,4,,0.00,8,,20
2012-2-8,39,37,35,34,28,25,93,72,60,30.44,30.39,30.35,8,6,2,14,9,,0.00,8,,352
2012-2-9,44,38,33,30,29,27,81,64,53,30.31,30.23,30.15,10,8,7,12,4,,0.00,7,,200
2012-2-10,39,34,26,37,29,12,93,81,55,30.28,30.13,30.01,10,5,2,18,7,26,0.00,6,Rain,300
2012-2-11,28,20,12,7,4,1,67,48,36,30.62,30.57,30.50,10,10,10,16,13,,0.00,0,,356
2012-2-12,41,28,14,9,5,0,79,40,19,30.57,30.44,30.27,10,10,10,13,5,,0.00,3,,169
2012-2-13,33,30,28,30,28,23,93,85,75,30.08,29.92,29.79,10,5,1,14,10,23,0.00,8,Snow,166
2012-2-14,55,44,33,36,32,28,87,64,47,29.97,29.93,29.90,10,8,5,8,4,,0.00,4,,165
2012-2-15,53,50,46,48,45,41,93,86,76,29.98,29.93,29.87,10,7,2,12,6,,0.00,8,Rain,171
2012-2-16,53,48,41,43,35,27,93,64,38,30.27,30.22,30.17,10,8,3,14,9,,0.00,4,,5
2012-2-17,53,46,39,41,38,30,81,67,54,30.19,30.13,30.08,10,8,7,12,3,,0.00,7,,187
2012-2-18,48,45,41,43,38,32,93,75,66,30.09,30.04,29.99,10,7,4,18,8,,0.00,7,,27
2012-2-19,53,45,37,30,26,21,70,47,28,30.10,30.06,30.01,10,10,10,9,2,,0.00,2,,10
2012-2-20,55,46,37,37,32,28,81,55,38,30.07,29.93,29.78,10,10,7,23,14,36,0.00,5,,146
2012-2-21,59,48,37,28,26,23,65,45,27,30.06,29.99,29.90,10,10,10,15,11,24,0.00,0,,240
2012-2-22,69,54,39,48,39,30,81,52,25,29.73,29.63,29.57,10,10,10,17,6,28,0.00,2,,232
2012-2-23,69,61,51,39,36,30,50,39,31,29.68,29.40,29.24,10,10,10,21,14,34,0.00,1,,254
2012-2-24,48,40,33,25,20,14,65,44,29,30.24,30.15,29.99,10,10,10,21,12,32,0.00,1,,317
2012-2-25,55,40,26,23,20,16,80,41,21,30.34,30.26,30.14,10,10,10,16,3,,0.00,0,,198
2012-2-26,62,53,44,30,27,19,57,35,28,30.14,30.08,30.01,10,10,10,17,15,34,0.00,0,,184
2012-2-27,62,55,48,36,31,27,62,40,30,30.38,30.33,30.27,10,10,10,17,7,23,0.00,4,,58
2012-2-28,64,56,48,55,51,36,82,71,59,30.18,29.99,29.80,10,10,10,23,15,38,0.00,7,,150
2012-2-29,62,58,51,39,29,23,58,35,27,29.95,29.92,29.87,10,10,10,21,12,28,0.00,1,,269